sensor_id;sensor_type;location;lat;lon;timestamp;pressure;altitude;pressure_sealevel;temperature;humidity
56944;BME280;42848;42.524;12.052;2023-04-20T00:01:46;96434.75;;;12.38;100.00
56944;BME280;42848;42.524;12.052;2023-04-20T00:04:15;96428.97;;;12.28;100.00
56944;BME280;42848;42.524;12.052;2023-04-20T00:06:42;96432.69;;;12.23;100.00
56944;BME280;42848;42.524;12.052;2023-04-20T00:09:11;96429.84;;;12.19;100.00
56944;BME280;42848;42.524;12.052;2023-04-20T00:11:37;96426.22;;;12.15;100.00
56944;BME280;42848;42.524;12.052;2023-04-20T00:14:03;96422.25;;;12.13;100.00
56944;BME280;42848;42.524;12.052;2023-04-20T00:16:29;96416.81;;;12.13;100.00
56944;BME280;42848;42.524;12.052;2023-04-20T00:18:55;96416.00;;;12.12;100.00
56944;BME280;42848;42.524;12.052;2023-04-20T00:21:21;96412.59;;;12.15;100.00
56944;BME280;42848;42.524;12.052;2023-04-20T00:23:51;96407.06;;;12.12;100.00
56944;BME280;42848;42.524;12.052;2023-04-20T00:26:17;96405.81;;;12.09;100.00
56944;BME280;42848;42.524;12.052;2023-04-20T00:28:43;96408.38;;;11.93;100.00
56944;BME280;42848;42.524;12.052;2023-04-20T00:31:09;96396.31;;;11.82;100.00
56944;BME280;42848;42.524;12.052;2023-04-20T00:33:35;96393.97;;;11.93;100.00
56944;BME280;42848;42.524;12.052;2023-04-20T00:36:01;96388.19;;;11.94;100.00
56944;BME280;42848;42.524;12.052;2023-04-20T00:38:27;96390.34;;;11.68;100.00
56944;BME280;42848;42.524;12.052;2023-04-20T00:40:56;96389.66;;;11.92;100.00
56944;BME280;42848;42.524;12.052;2023-04-20T00:43:22;96381.16;;;11.81;100.00
56944;BME280;42848;42.524;12.052;2023-04-20T00:45:47;96380.00;;;11.82;100.00
56944;BME280;42848;42.524;12.052;2023-04-20T00:48:13;96376.28;;;11.87;100.00
56944;BME280;42848;42.524;12.052;2023-04-20T00:50:39;96378.53;;;11.85;100.00
56944;BME280;42848;42.524;12.052;2023-04-20T00:53:06;96375.03;;;11.84;100.00
56944;BME280;42848;42.524;12.052;2023-04-20T00:55:33;96366.97;;;11.88;100.00
56944;BME280;42848;42.524;12.052;2023-04-20T00:58:01;96366.06;;;11.84;100.00
56944;BME280;42848;42.524;12.052;2023-04-20T01:00:27;96367.56;;;11.93;100.00
56944;BME280;42848;42.524;12.052;2023-04-20T01:02:53;96365.19;;;11.92;100.00
56944;BME280;42848;42.524;12.052;2023-04-20T01:05:19;96366.56;;;11.98;100.00
56944;BME280;42848;42.524;12.052;2023-04-20T01:07:46;96358.09;;;11.79;100.00
56944;BME280;42848;42.524;12.052;2023-04-20T01:10:11;96359.06;;;11.95;100.00
56944;BME280;42848;42.524;12.052;2023-04-20T01:12:37;96351.84;;;11.99;100.00
56944;BME280;42848;42.524;12.052;2023-04-20T01:15:04;96356.25;;;11.91;100.00
56944;BME280;42848;42.524;12.052;2023-04-20T01:17:31;96345.34;;;11.91;100.00
56944;BME280;42848;42.524;12.052;2023-04-20T01:19:58;96343.63;;;11.87;100.00
56944;BME280;42848;42.524;12.052;2023-04-20T01:22:25;96341.16;;;11.82;100.00
56944;BME280;42848;42.524;12.052;2023-04-20T01:24:51;96341.16;;;11.82;100.00
56944;BME280;42848;42.524;12.052;2023-04-20T01:27:17;96343.41;;;11.80;100.00
56944;BME280;42848;42.524;12.052;2023-04-20T01:29:43;96341.94;;;11.82;100.00
56944;BME280;42848;42.524;12.052;2023-04-20T01:32:10;96343.97;;;11.85;100.00
56944;BME280;42848;42.524;12.052;2023-04-20T01:34:36;96348.28;;;11.86;100.00
56944;BME280;42848;42.524;12.052;2023-04-20T01:37:02;96345.44;;;11.83;100.00
56944;BME280;42848;42.524;12.052;2023-04-20T01:39:36;96355.59;;;11.74;100.00
56944;BME280;42848;42.524;12.052;2023-04-20T01:42:04;96348.00;;;11.79;100.00
56944;BME280;42848;42.524;12.052;2023-04-20T01:44:30;96347.53;;;11.98;100.00
56944;BME280;42848;42.524;12.052;2023-04-20T01:46:55;96350.16;;;11.74;100.00
56944;BME280;42848;42.524;12.052;2023-04-20T01:49:21;96338.59;;;11.77;100.00
56944;BME280;42848;42.524;12.052;2023-04-20T01:51:47;96343.13;;;11.73;100.00
56944;BME280;42848;42.524;12.052;2023-04-20T01:54:13;96343.34;;;11.67;100.00
56944;BME280;42848;42.524;12.052;2023-04-20T01:56:38;96339.72;;;11.63;100.00
56944;BME280;42848;42.524;12.052;2023-04-20T01:59:04;96340.19;;;11.78;100.00
56944;BME280;42848;42.524;12.052;2023-04-20T02:01:30;96335.19;;;11.67;100.00
56944;BME280;42848;42.524;12.052;2023-04-20T02:03:57;96335.19;;;11.67;100.00
56944;BME280;42848;42.524;12.052;2023-04-20T02:06:22;96333.63;;;11.79;100.00
56944;BME280;42848;42.524;12.052;2023-04-20T02:08:48;96337.00;;;11.63;100.00
56944;BME280;42848;42.524;12.052;2023-04-20T02:11:14;96332.69;;;11.62;100.00
56944;BME280;42848;42.524;12.052;2023-04-20T02:13:40;96324.09;;;11.39;100.00
56944;BME280;42848;42.524;12.052;2023-04-20T02:16:06;96321.28;;;11.36;100.00
56944;BME280;42848;42.524;12.052;2023-04-20T02:18:32;96321.28;;;11.36;100.00
56944;BME280;42848;42.524;12.052;2023-04-20T02:20:59;96318.97;;;11.26;100.00
56944;BME280;42848;42.524;12.052;2023-04-20T02:23:25;96319.47;;;11.40;100.00
56944;BME280;42848;42.524;12.052;2023-04-20T02:25:51;96327.06;;;11.34;100.00
56944;BME280;42848;42.524;12.052;2023-04-20T02:28:17;96327.16;;;11.38;100.00
56944;BME280;42848;42.524;12.052;2023-04-20T02:30:42;96324.94;;;11.19;100.00
56944;BME280;42848;42.524;12.052;2023-04-20T02:33:08;96320.97;;;11.17;100.00
56944;BME280;42848;42.524;12.052;2023-04-20T02:35:34;96323.72;;;11.29;100.00
56944;BME280;42848;42.524;12.052;2023-04-20T02:38:00;96308.31;;;11.21;100.00
56944;BME280;42848;42.524;12.052;2023-04-20T02:40:26;96309.94;;;11.34;100.00
56944;BME280;42848;42.524;12.052;2023-04-20T02:42:52;96312.34;;;11.15;100.00
56944;BME280;42848;42.524;12.052;2023-04-20T02:45:17;96309.31;;;11.16;100.00
56944;BME280;42848;42.524;12.052;2023-04-20T02:47:43;96302.00;;;11.29;100.00
56944;BME280;42848;42.524;12.052;2023-04-20T02:50:09;96309.56;;;11.23;100.00
56944;BME280;42848;42.524;12.052;2023-04-20T02:52:35;96311.47;;;11.23;100.00
56944;BME280;42848;42.524;12.052;2023-04-20T02:55:01;96301.97;;;11.17;100.00
56944;BME280;42848;42.524;12.052;2023-04-20T02:57:27;96309.47;;;10.99;100.00
56944;BME280;42848;42.524;12.052;2023-04-20T02:59:53;96309.06;;;11.09;100.00
56944;BME280;42848;42.524;12.052;2023-04-20T03:02:18;96303.47;;;11.05;100.00
56944;BME280;42848;42.524;12.052;2023-04-20T03:04:44;96307.41;;;11.17;100.00
56944;BME280;42848;42.524;12.052;2023-04-20T03:07:10;96309.16;;;11.13;100.00
56944;BME280;42848;42.524;12.052;2023-04-20T03:09:36;96312.50;;;11.18;100.00
56944;BME280;42848;42.524;12.052;2023-04-20T03:12:03;96308.78;;;11.02;100.00
56944;BME280;42848;42.524;12.052;2023-04-20T03:14:29;96310.34;;;11.24;100.00
56944;BME280;42848;42.524;12.052;2023-04-20T03:16:55;96314.19;;;11.23;100.00
56944;BME280;42848;42.524;12.052;2023-04-20T03:19:22;96318.72;;;11.19;100.00
56944;BME280;42848;42.524;12.052;2023-04-20T03:21:47;96320.97;;;11.17;100.00
56944;BME280;42848;42.524;12.052;2023-04-20T03:24:13;96319.69;;;11.35;100.00
56944;BME280;42848;42.524;12.052;2023-04-20T03:26:39;96325.31;;;11.30;100.00
56944;BME280;42848;42.524;12.052;2023-04-20T03:29:04;96317.84;;;11.27;100.00
56944;BME280;42848;42.524;12.052;2023-04-20T03:31:30;96317.78;;;11.15;100.00
56944;BME280;42848;42.524;12.052;2023-04-20T03:33:56;96316.47;;;11.00;100.00
56944;BME280;42848;42.524;12.052;2023-04-20T03:36:22;96312.59;;;11.22;100.00
56944;BME280;42848;42.524;12.052;2023-04-20T03:38:47;96314.78;;;11.28;100.00
56944;BME280;42848;42.524;12.052;2023-04-20T03:41:13;96309.97;;;11.13;100.00
56944;BME280;42848;42.524;12.052;2023-04-20T03:43:39;96319.78;;;11.05;100.00
56944;BME280;42848;42.524;12.052;2023-04-20T03:46:06;96316.59;;;11.03;100.00
56944;BME280;42848;42.524;12.052;2023-04-20T03:48:33;96318.84;;;11.01;100.00
56944;BME280;42848;42.524;12.052;2023-04-20T03:50:58;96320.47;;;10.81;100.00
56944;BME280;42848;42.524;12.052;2023-04-20T03:53:25;96322.72;;;10.79;100.00
56944;BME280;42848;42.524;12.052;2023-04-20T03:55:50;96317.53;;;10.87;100.00
56944;BME280;42848;42.524;12.052;2023-04-20T03:58:16;96321.44;;;10.77;100.00
56944;BME280;42848;42.524;12.052;2023-04-20T04:00:42;96318.47;;;10.70;100.00
56944;BME280;42848;42.524;12.052;2023-04-20T04:03:08;96316.50;;;10.79;100.00
56944;BME280;42848;42.524;12.052;2023-04-20T04:05:35;96313.56;;;10.84;100.00
56944;BME280;42848;42.524;12.052;2023-04-20T04:08:00;96322.09;;;10.74;100.00
56944;BME280;42848;42.524;12.052;2023-04-20T04:10:26;96314.69;;;10.62;100.00
56944;BME280;42848;42.524;12.052;2023-04-20T04:12:52;96319.66;;;10.81;100.00
56944;BME280;42848;42.524;12.052;2023-04-20T04:15:17;96320.97;;;10.75;100.00
56944;BME280;42848;42.524;12.052;2023-04-20T04:17:44;96327.75;;;10.90;100.00
56944;BME280;42848;42.524;12.052;2023-04-20T04:20:10;96322.16;;;10.86;100.00
56944;BME280;42848;42.524;12.052;2023-04-20T04:22:36;96325.34;;;11.09;100.00
56944;BME280;42848;42.524;12.052;2023-04-20T04:25:03;96321.56;;;11.01;100.00
56944;BME280;42848;42.524;12.052;2023-04-20T04:27:29;96321.75;;;10.96;100.00
56944;BME280;42848;42.524;12.052;2023-04-20T04:29:59;96324.81;;;10.95;100.00
56944;BME280;42848;42.524;12.052;2023-04-20T04:32:25;96330.41;;;10.98;100.00
56944;BME280;42848;42.524;12.052;2023-04-20T04:34:51;96326.56;;;10.99;100.00
56944;BME280;42848;42.524;12.052;2023-04-20T04:37:18;96331.53;;;10.97;100.00
56944;BME280;42848;42.524;12.052;2023-04-20T04:39:44;96334.34;;;11.22;100.00
56944;BME280;42848;42.524;12.052;2023-04-20T04:42:10;96330.44;;;11.10;100.00
56944;BME280;42848;42.524;12.052;2023-04-20T04:44:36;96343.44;;;11.26;100.00
56944;BME280;42848;42.524;12.052;2023-04-20T04:47:02;96340.44;;;11.19;100.00
56944;BME280;42848;42.524;12.052;2023-04-20T04:49:33;96347.38;;;10.66;100.00
56944;BME280;42848;42.524;12.052;2023-04-20T04:52:00;96342.97;;;10.61;100.00
56944;BME280;42848;42.524;12.052;2023-04-20T04:54:26;96352.72;;;10.83;100.00
56944;BME280;42848;42.524;12.052;2023-04-20T04:56:51;96353.16;;;10.64;100.00
56944;BME280;42848;42.524;12.052;2023-04-20T04:59:17;96358.38;;;10.02;100.00
56944;BME280;42848;42.524;12.052;2023-04-20T05:01:43;96360.56;;;10.17;100.00
56944;BME280;42848;42.524;12.052;2023-04-20T05:04:08;96359.25;;;10.23;100.00
56944;BME280;42848;42.524;12.052;2023-04-20T05:06:34;96360.38;;;10.22;100.00
56944;BME280;42848;42.524;12.052;2023-04-20T05:09:00;96359.59;;;10.51;100.00
56944;BME280;42848;42.524;12.052;2023-04-20T05:11:25;96353.16;;;10.85;100.00
56944;BME280;42848;42.524;12.052;2023-04-20T05:13:51;96362.03;;;10.94;100.00
56944;BME280;42848;42.524;12.052;2023-04-20T05:16:17;96361.06;;;10.48;100.00
56944;BME280;42848;42.524;12.052;2023-04-20T05:18:43;96366.84;;;10.68;100.00
56944;BME280;42848;42.524;12.052;2023-04-20T05:21:08;96363.22;;;10.64;100.00
56944;BME280;42848;42.524;12.052;2023-04-20T05:23:34;96356.88;;;11.01;100.00
56944;BME280;42848;42.524;12.052;2023-04-20T05:26:00;96367.97;;;10.67;100.00
56944;BME280;42848;42.524;12.052;2023-04-20T05:28:26;96366.47;;;10.48;100.00
56944;BME280;42848;42.524;12.052;2023-04-20T05:30:51;96370.69;;;10.37;100.00
56944;BME280;42848;42.524;12.052;2023-04-20T05:33:19;96361.28;;;10.64;100.00
56944;BME280;42848;42.524;12.052;2023-04-20T05:35:45;96353.56;;;10.75;100.00
56944;BME280;42848;42.524;12.052;2023-04-20T05:38:11;96360.84;;;10.83;100.00
56944;BME280;42848;42.524;12.052;2023-04-20T05:40:37;96370.63;;;10.75;100.00
56944;BME280;42848;42.524;12.052;2023-04-20T05:43:03;96372.47;;;10.63;100.00
56944;BME280;42848;42.524;12.052;2023-04-20T05:45:28;96365.66;;;10.27;100.00
56944;BME280;42848;42.524;12.052;2023-04-20T05:47:55;96369.03;;;10.53;100.00
56944;BME280;42848;42.524;12.052;2023-04-20T05:50:25;96379.31;;;10.39;100.00
56944;BME280;42848;42.524;12.052;2023-04-20T05:52:51;96378.53;;;10.60;100.00
56944;BME280;42848;42.524;12.052;2023-04-20T05:55:18;96380.81;;;10.58;100.00
56944;BME280;42848;42.524;12.052;2023-04-20T05:57:44;96384.72;;;10.69;100.00
56944;BME280;42848;42.524;12.052;2023-04-20T06:00:11;96386.38;;;10.23;100.00
56944;BME280;42848;42.524;12.052;2023-04-20T06:02:37;96382.69;;;10.66;100.00
56944;BME280;42848;42.524;12.052;2023-04-20T06:05:03;96380.81;;;10.58;100.00
56944;BME280;42848;42.524;12.052;2023-04-20T06:07:29;96386.22;;;10.58;100.00
56944;BME280;42848;42.524;12.052;2023-04-20T06:09:55;96380.09;;;10.69;100.00
56944;BME280;42848;42.524;12.052;2023-04-20T06:12:22;96369.47;;;11.06;100.00
56944;BME280;42848;42.524;12.052;2023-04-20T06:14:47;96369.56;;;10.68;100.00
56944;BME280;42848;42.524;12.052;2023-04-20T06:17:13;96375.84;;;10.60;100.00
56944;BME280;42848;42.524;12.052;2023-04-20T06:19:39;96376.16;;;10.58;100.00
56944;BME280;42848;42.524;12.052;2023-04-20T06:22:08;96370.91;;;10.62;100.00
56944;BME280;42848;42.524;12.052;2023-04-20T06:24:35;96381.50;;;10.75;100.00
56944;BME280;42848;42.524;12.052;2023-04-20T06:27:01;96392.16;;;10.13;100.00
56944;BME280;42848;42.524;12.052;2023-04-20T06:29:27;96383.19;;;10.21;100.00
56944;BME280;42848;42.524;12.052;2023-04-20T06:31:54;96382.00;;;10.39;100.00
56944;BME280;42848;42.524;12.052;2023-04-20T06:34:19;96388.56;;;10.38;100.00
56944;BME280;42848;42.524;12.052;2023-04-20T06:36:45;96390.56;;;10.50;100.00
56944;BME280;42848;42.524;12.052;2023-04-20T06:39:11;96389.13;;;10.82;100.00
56944;BME280;42848;42.524;12.052;2023-04-20T06:41:37;96392.06;;;10.68;100.00
56944;BME280;42848;42.524;12.052;2023-04-20T06:44:04;96392.22;;;10.72;100.00
56944;BME280;42848;42.524;12.052;2023-04-20T06:46:30;96396.75;;;10.89;100.00
56944;BME280;42848;42.524;12.052;2023-04-20T06:48:56;96392.47;;;11.08;100.00
56944;BME280;42848;42.524;12.052;2023-04-20T06:51:24;96397.94;;;10.79;100.00
56944;BME280;42848;42.524;12.052;2023-04-20T06:53:51;96387.63;;;10.93;100.00
56944;BME280;42848;42.524;12.052;2023-04-20T06:56:16;96394.72;;;11.06;100.00
56944;BME280;42848;42.524;12.052;2023-04-20T06:58:42;96399.81;;;11.08;100.00
56944;BME280;42848;42.524;12.052;2023-04-20T07:01:08;96400.22;;;11.19;100.00
56944;BME280;42848;42.524;12.052;2023-04-20T07:03:33;96402.34;;;11.34;100.00
56944;BME280;42848;42.524;12.052;2023-04-20T07:05:59;96403.25;;;11.38;100.00
56944;BME280;42848;42.524;12.052;2023-04-20T07:08:25;96402.53;;;11.29;100.00
56944;BME280;42848;42.524;12.052;2023-04-20T07:10:51;96409.09;;;11.28;100.00
56944;BME280;42848;42.524;12.052;2023-04-20T07:13:16;96412.66;;;11.20;100.00
56944;BME280;42848;42.524;12.052;2023-04-20T07:15:44;96406.56;;;11.23;100.00
56944;BME280;42848;42.524;12.052;2023-04-20T07:18:10;96402.91;;;11.39;100.00
56944;BME280;42848;42.524;12.052;2023-04-20T07:20:36;96404.16;;;11.42;100.00
56944;BME280;42848;42.524;12.052;2023-04-20T07:23:02;96401.78;;;11.40;100.00
56944;BME280;42848;42.524;12.052;2023-04-20T07:25:27;96402.13;;;11.39;100.00
56944;BME280;42848;42.524;12.052;2023-04-20T07:27:56;96393.06;;;11.35;100.00
56944;BME280;42848;42.524;12.052;2023-04-20T07:30:21;96400.16;;;11.60;100.00
56944;BME280;42848;42.524;12.052;2023-04-20T07:32:47;96394.91;;;11.43;100.00
56944;BME280;42848;42.524;12.052;2023-04-20T07:35:13;96397.97;;;11.75;100.00
56944;BME280;42848;42.524;12.052;2023-04-20T07:37:39;96394.88;;;11.64;100.00
56944;BME280;42848;42.524;12.052;2023-04-20T07:40:06;96396.94;;;11.79;100.00
56944;BME280;42848;42.524;12.052;2023-04-20T07:42:32;96397.53;;;11.73;100.00
56944;BME280;42848;42.524;12.052;2023-04-20T07:44:59;96397.94;;;11.62;100.00
56944;BME280;42848;42.524;12.052;2023-04-20T07:47:24;96395.16;;;11.50;100.00
56944;BME280;42848;42.524;12.052;2023-04-20T07:49:50;96397.38;;;11.90;100.00
56944;BME280;42848;42.524;12.052;2023-04-20T07:52:16;96399.25;;;12.22;100.00
56944;BME280;42848;42.524;12.052;2023-04-20T07:54:44;96393.34;;;12.33;100.00
56944;BME280;42848;42.524;12.052;2023-04-20T07:57:09;96396.00;;;11.96;100.00
56944;BME280;42848;42.524;12.052;2023-04-20T07:59:35;96404.53;;;12.07;100.00
56944;BME280;42848;42.524;12.052;2023-04-20T08:02:02;96402.66;;;12.19;100.00
56944;BME280;42848;42.524;12.052;2023-04-20T08:04:28;96395.66;;;11.98;100.00
56944;BME280;42848;42.524;12.052;2023-04-20T08:06:54;96407.53;;;11.81;100.00
56944;BME280;42848;42.524;12.052;2023-04-20T08:09:20;96400.38;;;12.34;100.00
56944;BME280;42848;42.524;12.052;2023-04-20T08:11:45;96401.41;;;12.29;100.00
56944;BME280;42848;42.524;12.052;2023-04-20T08:14:13;96398.59;;;12.26;100.00
56944;BME280;42848;42.524;12.052;2023-04-20T08:16:38;96407.06;;;12.12;100.00
56944;BME280;42848;42.524;12.052;2023-04-20T08:19:04;96406.72;;;12.13;100.00
56944;BME280;42848;42.524;12.052;2023-04-20T08:21:36;96405.00;;;12.09;100.00
56944;BME280;42848;42.524;12.052;2023-04-20T08:24:03;96403.78;;;12.43;100.00
56944;BME280;42848;42.524;12.052;2023-04-20T08:26:29;96416.16;;;12.40;100.00
56944;BME280;42848;42.524;12.052;2023-04-20T08:28:55;96408.13;;;12.68;100.00
56944;BME280;42848;42.524;12.052;2023-04-20T08:31:21;96401.78;;;12.64;100.00
56944;BME280;42848;42.524;12.052;2023-04-20T08:33:46;96409.84;;;12.73;100.00
56944;BME280;42848;42.524;12.052;2023-04-20T08:36:12;96408.81;;;12.53;100.00
56944;BME280;42848;42.524;12.052;2023-04-20T08:38:38;96410.84;;;12.56;100.00
56944;BME280;42848;42.524;12.052;2023-04-20T08:41:04;96408.91;;;12.69;100.00
56944;BME280;42848;42.524;12.052;2023-04-20T08:43:30;96405.72;;;12.79;100.00
56944;BME280;42848;42.524;12.052;2023-04-20T08:45:57;96404.47;;;12.76;100.00
56944;BME280;42848;42.524;12.052;2023-04-20T08:48:24;96407.50;;;13.12;100.00
56944;BME280;42848;42.524;12.052;2023-04-20T08:50:53;96397.06;;;13.26;100.00
56944;BME280;42848;42.524;12.052;2023-04-20T08:53:20;96389.13;;;13.21;100.00
56944;BME280;42848;42.524;12.052;2023-04-20T08:55:48;96393.41;;;13.34;100.00
56944;BME280;42848;42.524;12.052;2023-04-20T08:58:14;96399.19;;;13.45;100.00
56944;BME280;42848;42.524;12.052;2023-04-20T09:00:49;96391.88;;;13.49;100.00
56944;BME280;42848;42.524;12.052;2023-04-20T09:03:14;96390.84;;;13.53;100.00
56944;BME280;42848;42.524;12.052;2023-04-20T09:05:40;96393.75;;;13.32;100.00
56944;BME280;42848;42.524;12.052;2023-04-20T09:08:07;96393.66;;;13.17;100.00
56944;BME280;42848;42.524;12.052;2023-04-20T09:10:41;96393.09;;;13.23;100.00
56944;BME280;42848;42.524;12.052;2023-04-20T09:13:09;96394.59;;;13.49;100.00
56944;BME280;42848;42.524;12.052;2023-04-20T09:15:45;96388.06;;;13.37;100.00
56944;BME280;42848;42.524;12.052;2023-04-20T09:18:12;96391.72;;;13.29;100.00
56944;BME280;42848;42.524;12.052;2023-04-20T09:20:40;96391.81;;;13.61;100.00
56944;BME280;42848;42.524;12.052;2023-04-20T09:23:14;96391.78;;;13.73;100.00
56944;BME280;42848;42.524;12.052;2023-04-20T09:25:40;96391.22;;;13.68;100.00
56944;BME280;42848;42.524;12.052;2023-04-20T09:28:08;96391.31;;;13.71;100.00
56944;BME280;42848;42.524;12.052;2023-04-20T09:30:47;96395.09;;;13.66;100.00
56944;BME280;42848;42.524;12.052;2023-04-20T09:33:15;96383.59;;;13.73;100.00
56944;BME280;42848;42.524;12.052;2023-04-20T09:35:44;96393.72;;;13.73;100.00
56944;BME280;42848;42.524;12.052;2023-04-20T09:38:14;96386.78;;;13.75;100.00
56944;BME280;42848;42.524;12.052;2023-04-20T09:40:40;96392.81;;;13.69;100.00
56944;BME280;42848;42.524;12.052;2023-04-20T09:43:12;96382.81;;;13.88;100.00
56944;BME280;42848;42.524;12.052;2023-04-20T09:45:42;96377.69;;;13.99;100.00
56944;BME280;42848;42.524;12.052;2023-04-20T09:48:09;96383.06;;;14.11;100.00
56944;BME280;42848;42.524;12.052;2023-04-20T09:50:36;96385.63;;;14.20;100.00
56944;BME280;42848;42.524;12.052;2023-04-20T09:53:05;96380.22;;;14.08;100.00
56944;BME280;42848;42.524;12.052;2023-04-20T09:55:31;96379.25;;;14.16;100.00
56944;BME280;42848;42.524;12.052;2023-04-20T09:57:59;96370.22;;;14.59;100.00
56944;BME280;42848;42.524;12.052;2023-04-20T10:00:26;96379.91;;;14.57;100.00
56944;BME280;42848;42.524;12.052;2023-04-20T10:02:52;96368.03;;;14.65;100.00
56944;BME280;42848;42.524;12.052;2023-04-20T10:05:18;96371.78;;;14.44;100.00
56944;BME280;42848;42.524;12.052;2023-04-20T10:07:44;96370.94;;;14.56;100.00
56944;BME280;42848;42.524;12.052;2023-04-20T10:10:12;96363.59;;;14.76;100.00
56944;BME280;42848;42.524;12.052;2023-04-20T10:12:55;96365.16;;;14.77;100.00
56944;BME280;42848;42.524;12.052;2023-04-20T10:15:22;96362.50;;;14.80;100.00
56944;BME280;42848;42.524;12.052;2023-04-20T10:17:49;96356.63;;;14.78;100.00
56944;BME280;42848;42.524;12.052;2023-04-20T10:20:18;96362.00;;;14.43;100.00
56944;BME280;42848;42.524;12.052;2023-04-20T10:22:44;96354.78;;;14.35;100.00
56944;BME280;42848;42.524;12.052;2023-04-20T10:25:16;96355.38;;;14.44;100.00
56944;BME280;42848;42.524;12.052;2023-04-20T10:27:58;96352.84;;;14.51;100.00
56944;BME280;42848;42.524;12.052;2023-04-20T10:30:27;96353.91;;;14.63;100.00
56944;BME280;42848;42.524;12.052;2023-04-20T10:33:07;96350.84;;;14.64;100.00
56944;BME280;42848;42.524;12.052;2023-04-20T10:36:00;96348.81;;;14.96;100.00
56944;BME280;42848;42.524;12.052;2023-04-20T10:38:30;96345.75;;;15.17;100.00
56944;BME280;42848;42.524;12.052;2023-04-20T10:41:04;96345.59;;;14.91;100.00
56944;BME280;42848;42.524;12.052;2023-04-20T10:43:31;96337.88;;;14.96;100.00
56944;BME280;42848;42.524;12.052;2023-04-20T10:45:56;96341.00;;;14.79;100.00
56944;BME280;42848;42.524;12.052;2023-04-20T10:48:22;96333.91;;;14.74;100.00
56944;BME280;42848;42.524;12.052;2023-04-20T10:50:48;96327.25;;;14.91;100.00
56944;BME280;42848;42.524;12.052;2023-04-20T10:53:18;96332.41;;;14.96;100.00
56944;BME280;42848;42.524;12.052;2023-04-20T10:55:44;96329.88;;;14.88;100.00
56944;BME280;42848;42.524;12.052;2023-04-20T10:58:21;96326.31;;;14.68;100.00
56944;BME280;42848;42.524;12.052;2023-04-20T11:00:56;96315.59;;;14.94;100.00
56944;BME280;42848;42.524;12.052;2023-04-20T11:03:22;96315.44;;;14.87;100.00
56944;BME280;42848;42.524;12.052;2023-04-20T11:05:49;96313.44;;;15.03;100.00
56944;BME280;42848;42.524;12.052;2023-04-20T11:08:15;96308.81;;;15.07;100.00
56944;BME280;42848;42.524;12.052;2023-04-20T11:10:41;96306.75;;;15.01;100.00
56944;BME280;42848;42.524;12.052;2023-04-20T11:13:21;96311.28;;;15.13;100.00
56944;BME280;42848;42.524;12.052;2023-04-20T11:15:47;96300.25;;;14.90;100.00
56944;BME280;42848;42.524;12.052;2023-04-20T11:18:13;96297.25;;;15.14;100.00
56944;BME280;42848;42.524;12.052;2023-04-20T11:20:54;96303.81;;;15.29;100.00
56944;BME280;42848;42.524;12.052;2023-04-20T11:23:21;96291.25;;;15.08;100.00
56944;BME280;42848;42.524;12.052;2023-04-20T11:25:55;96294.00;;;15.08;100.00
56944;BME280;42848;42.524;12.052;2023-04-20T11:28:21;96285.88;;;15.31;100.00
56944;BME280;42848;42.524;12.052;2023-04-20T11:30:48;96290.91;;;15.68;100.00
56944;BME280;42848;42.524;12.052;2023-04-20T11:33:24;96288.22;;;15.72;100.00
56944;BME280;42848;42.524;12.052;2023-04-20T11:35:52;96283.19;;;15.74;100.00
56944;BME280;42848;42.524;12.052;2023-04-20T11:38:29;96276.19;;;15.99;100.00
56944;BME280;42848;42.524;12.052;2023-04-20T11:40:55;96280.63;;;16.30;100.00
56944;BME280;42848;42.524;12.052;2023-04-20T11:43:22;96280.94;;;16.02;100.00
56944;BME280;42848;42.524;12.052;2023-04-20T11:45:47;96285.81;;;15.67;100.00
56944;BME280;42848;42.524;12.052;2023-04-20T11:48:13;96285.03;;;16.12;100.00
56944;BME280;42848;42.524;12.052;2023-04-20T11:50:39;96287.75;;;16.12;100.00
56944;BME280;42848;42.524;12.052;2023-04-20T11:53:04;96286.66;;;16.16;100.00
56944;BME280;42848;42.524;12.052;2023-04-20T11:55:30;96284.19;;;16.61;100.00
56944;BME280;42848;42.524;12.052;2023-04-20T11:57:56;96285.97;;;16.72;100.00
56944;BME280;42848;42.524;12.052;2023-04-20T12:00:21;96283.28;;;16.76;100.00
56944;BME280;42848;42.524;12.052;2023-04-20T12:02:47;96278.09;;;16.44;100.00
56944;BME280;42848;42.524;12.052;2023-04-20T12:05:13;96286.56;;;16.09;100.00
56944;BME280;42848;42.524;12.052;2023-04-20T12:07:39;96281.00;;;16.06;100.00
56944;BME280;42848;42.524;12.052;2023-04-20T12:10:06;96275.78;;;15.74;100.00
56944;BME280;42848;42.524;12.052;2023-04-20T12:12:32;96275.81;;;15.78;100.00
56944;BME280;42848;42.524;12.052;2023-04-20T12:14:58;96274.66;;;15.79;100.00
56944;BME280;42848;42.524;12.052;2023-04-20T12:17:24;96276.47;;;15.71;100.00
56944;BME280;42848;42.524;12.052;2023-04-20T12:19:49;96273.28;;;15.88;100.00
56944;BME280;42848;42.524;12.052;2023-04-20T12:22:15;96265.84;;;15.89;100.00
56944;BME280;42848;42.524;12.052;2023-04-20T12:24:41;96272.31;;;16.00;100.00
56944;BME280;42848;42.524;12.052;2023-04-20T12:27:06;96262.81;;;16.43;100.00
56944;BME280;42848;42.524;12.052;2023-04-20T12:29:32;96262.50;;;16.22;100.00
56944;BME280;42848;42.524;12.052;2023-04-20T12:31:58;96267.97;;;16.22;100.00
56944;BME280;42848;42.524;12.052;2023-04-20T12:34:24;96268.41;;;16.01;100.00
56944;BME280;42848;42.524;12.052;2023-04-20T12:36:50;96265.69;;;16.01;100.00
56944;BME280;42848;42.524;12.052;2023-04-20T12:39:16;96269.13;;;15.98;100.00